Coronel FAP Francisco Secada Vignetta International Airport
SPQT : rendu visible

Aérodrome :











RETROUVEZ-NOUS SUR...

 
LOGIN :

S'inscrire | Disclaimer

   EN    FR    IT 

 









Légende :    VFR   VFR Marginal   IFR   IFR Intensif   IFR Très Intensif
Visi : 
Plafond : 
>= 8 km
>= 3000ft
5 à 8 km
1000 à 3000 ft
1500m à 5 km
500 à 1000 ft
800 à 1500m
200 à 500 ft
< 800m
< 200 ft
Symboles :   Orages  Brouillard  Fortes neiges  Fortes précipitations  Vent > 20 kt






- Altitude de l'aérodrome : 306 ft
- Code IATA : IQT


SPQT - Coronel FAP Francisco Secada Vignetta International

DERNIER METAR :
  • 111800Z VRB03KT 9999 BKN018 BKN080 29/23 Q1013 NOSIG RMK BIRD HAZARD RWY 06/24 PP000

METARs EXPIRÉS :
  • 111700Z 16003KT 100V220 9999 BKN017 BKN080 28/23 Q1014 NOSIG RMK BIRD HAZARD RWY 06/24 PP000
  • 111600Z 17003KT 140V200 9999 BKN017 BKN080 27/23 Q1015 TEMPO 8000 -DZ RMK BIRD HAZARD RWY 06/24 PP000

TAF TAF SPQT
Valide du 11 à 18h jusqu'au 12 à 18h UTC


111700Z 1118/1218 00000KT 9999 SCT020 BKN100 TX32/1120Z TN23/1211Z
TEMPO 1118/1122 03012KT 4000 SHRA BKN020 FEW030TCU BKN070
BECMG 1122/1201 31004KT 9999 FEW010
FIR SPIM / Amérique du Sud



MET'MAP, la Météo Aéronautique d'un coup d'oeil ! - Copyright ORBIFLY Décembre 2007 - Disclaimer

ORBIFLY MET'MAP TEAM :

Programmation & Développement : Alexandra Zaïnal
Sur une idée originale de : Baudouin d'Aumeries
Assistance à la programmation : Marc-Olivier Méhu
Soutien technique & logistique : Manuel Goepfert

Contact : metmap@orbifly.com




SOURCES & CREDITS :

   NOAA       Earth
Advisory